sensor_id;sensor_type;location;lat;lon;timestamp;P1;durP1;ratioP1;P2;durP2;ratioP2
47589;SDS011;33316;52.298;9.056;2024-01-15T00:00:30;8.68;;;5.45;;
47589;SDS011;33316;52.298;9.056;2024-01-15T00:02:57;9.52;;;5.75;;
47589;SDS011;33316;52.298;9.056;2024-01-15T00:05:25;13.73;;;6.97;;
47589;SDS011;33316;52.298;9.056;2024-01-15T00:07:53;14.90;;;6.72;;
47589;SDS011;33316;52.298;9.056;2024-01-15T00:10:20;15.10;;;7.22;;
47589;SDS011;33316;52.298;9.056;2024-01-15T00:12:47;13.15;;;6.97;;
47589;SDS011;33316;52.298;9.056;2024-01-15T00:15:14;15.52;;;7.43;;
47589;SDS011;33316;52.298;9.056;2024-01-15T00:17:41;16.17;;;7.13;;
47589;SDS011;33316;52.298;9.056;2024-01-15T00:20:08;13.35;;;7.15;;
47589;SDS011;33316;52.298;9.056;2024-01-15T00:22:38;11.40;;;6.13;;
47589;SDS011;33316;52.298;9.056;2024-01-15T00:25:06;12.43;;;6.25;;
47589;SDS011;33316;52.298;9.056;2024-01-15T00:27:35;10.35;;;5.20;;
47589;SDS011;33316;52.298;9.056;2024-01-15T00:30:02;8.15;;;5.30;;
47589;SDS011;33316;52.298;9.056;2024-01-15T00:32:30;6.75;;;4.45;;
47589;SDS011;33316;52.298;9.056;2024-01-15T00:34:57;9.02;;;5.05;;
47589;SDS011;33316;52.298;9.056;2024-01-15T00:37:23;6.35;;;4.22;;
47589;SDS011;33316;52.298;9.056;2024-01-15T00:39:52;6.10;;;3.80;;
47589;SDS011;33316;52.298;9.056;2024-01-15T00:42:19;8.90;;;3.72;;
47589;SDS011;33316;52.298;9.056;2024-01-15T00:44:46;4.22;;;2.45;;
47589;SDS011;33316;52.298;9.056;2024-01-15T00:47:13;7.18;;;2.60;;
47589;SDS011;33316;52.298;9.056;2024-01-15T00:49:40;6.30;;;2.42;;
47589;SDS011;33316;52.298;9.056;2024-01-15T00:52:07;4.03;;;2.17;;
47589;SDS011;33316;52.298;9.056;2024-01-15T00:54:34;2.92;;;1.92;;
47589;SDS011;33316;52.298;9.056;2024-01-15T00:57:03;4.50;;;1.98;;
47589;SDS011;33316;52.298;9.056;2024-01-15T00:59:30;4.10;;;2.03;;
47589;SDS011;33316;52.298;9.056;2024-01-15T01:01:57;5.57;;;2.50;;
47589;SDS011;33316;52.298;9.056;2024-01-15T01:04:24;4.47;;;2.22;;
47589;SDS011;33316;52.298;9.056;2024-01-15T01:06:53;4.60;;;2.40;;
47589;SDS011;33316;52.298;9.056;2024-01-15T01:09:20;5.68;;;3.00;;
47589;SDS011;33316;52.298;9.056;2024-01-15T01:11:46;4.90;;;2.70;;
47589;SDS011;33316;52.298;9.056;2024-01-15T01:14:15;5.03;;;2.72;;
47589;SDS011;33316;52.298;9.056;2024-01-15T01:16:42;5.93;;;2.90;;
47589;SDS011;33316;52.298;9.056;2024-01-15T01:19:09;6.03;;;2.42;;
47589;SDS011;33316;52.298;9.056;2024-01-15T01:21:35;6.70;;;3.15;;
47589;SDS011;33316;52.298;9.056;2024-01-15T01:24:03;5.05;;;2.78;;
47589;SDS011;33316;52.298;9.056;2024-01-15T01:26:30;4.88;;;3.33;;
47589;SDS011;33316;52.298;9.056;2024-01-15T01:28:57;3.58;;;2.58;;
47589;SDS011;33316;52.298;9.056;2024-01-15T01:31:25;6.78;;;3.05;;
47589;SDS011;33316;52.298;9.056;2024-01-15T01:33:53;5.20;;;2.60;;
47589;SDS011;33316;52.298;9.056;2024-01-15T01:36:20;5.72;;;2.70;;
47589;SDS011;33316;52.298;9.056;2024-01-15T01:38:47;7.15;;;3.08;;
47589;SDS011;33316;52.298;9.056;2024-01-15T01:41:13;4.00;;;2.60;;
47589;SDS011;33316;52.298;9.056;2024-01-15T01:43:40;4.63;;;2.63;;
47589;SDS011;33316;52.298;9.056;2024-01-15T01:46:07;7.70;;;3.10;;
47589;SDS011;33316;52.298;9.056;2024-01-15T01:48:35;4.47;;;2.10;;
47589;SDS011;33316;52.298;9.056;2024-01-15T01:51:02;7.32;;;2.92;;
47589;SDS011;33316;52.298;9.056;2024-01-15T01:53:30;6.05;;;2.30;;
47589;SDS011;33316;52.298;9.056;2024-01-15T01:55:59;5.10;;;2.45;;
47589;SDS011;33316;52.298;9.056;2024-01-15T01:58:27;8.07;;;2.22;;
47589;SDS011;33316;52.298;9.056;2024-01-15T02:00:55;4.93;;;2.10;;
47589;SDS011;33316;52.298;9.056;2024-01-15T02:03:25;3.35;;;1.50;;
47589;SDS011;33316;52.298;9.056;2024-01-15T02:05:55;3.45;;;1.40;;
47589;SDS011;33316;52.298;9.056;2024-01-15T02:08:22;3.90;;;1.48;;
47589;SDS011;33316;52.298;9.056;2024-01-15T02:10:49;3.55;;;1.50;;
47589;SDS011;33316;52.298;9.056;2024-01-15T02:13:17;5.07;;;1.75;;
47589;SDS011;33316;52.298;9.056;2024-01-15T02:15:44;2.78;;;1.65;;
47589;SDS011;33316;52.298;9.056;2024-01-15T02:18:11;3.72;;;1.45;;
47589;SDS011;33316;52.298;9.056;2024-01-15T02:20:37;5.35;;;1.60;;
47589;SDS011;33316;52.298;9.056;2024-01-15T02:23:09;5.40;;;1.65;;
47589;SDS011;33316;52.298;9.056;2024-01-15T02:25:37;3.85;;;1.58;;
47589;SDS011;33316;52.298;9.056;2024-01-15T02:28:10;3.30;;;1.30;;
47589;SDS011;33316;52.298;9.056;2024-01-15T02:30:39;3.20;;;1.30;;
47589;SDS011;33316;52.298;9.056;2024-01-15T02:33:07;3.35;;;1.20;;
47589;SDS011;33316;52.298;9.056;2024-01-15T02:35:35;3.65;;;1.02;;
47589;SDS011;33316;52.298;9.056;2024-01-15T02:38:04;3.92;;;1.27;;
47589;SDS011;33316;52.298;9.056;2024-01-15T02:40:33;4.43;;;1.15;;
47589;SDS011;33316;52.298;9.056;2024-01-15T02:43:00;5.93;;;1.50;;
47589;SDS011;33316;52.298;9.056;2024-01-15T02:45:27;4.03;;;1.15;;
47589;SDS011;33316;52.298;9.056;2024-01-15T02:47:54;3.60;;;1.00;;
47589;SDS011;33316;52.298;9.056;2024-01-15T02:50:21;3.10;;;1.05;;
47589;SDS011;33316;52.298;9.056;2024-01-15T02:52:48;4.80;;;1.30;;
47589;SDS011;33316;52.298;9.056;2024-01-15T02:55:15;5.25;;;1.30;;
47589;SDS011;33316;52.298;9.056;2024-01-15T02:57:44;3.70;;;1.52;;
47589;SDS011;33316;52.298;9.056;2024-01-15T03:00:11;1.67;;;0.80;;
47589;SDS011;33316;52.298;9.056;2024-01-15T03:02:39;2.78;;;1.13;;
47589;SDS011;33316;52.298;9.056;2024-01-15T03:05:08;3.28;;;1.00;;
47589;SDS011;33316;52.298;9.056;2024-01-15T03:07:37;5.93;;;1.30;;
47589;SDS011;33316;52.298;9.056;2024-01-15T03:10:04;2.58;;;0.80;;
47589;SDS011;33316;52.298;9.056;2024-01-15T03:12:32;4.15;;;1.27;;
47589;SDS011;33316;52.298;9.056;2024-01-15T03:15:00;4.30;;;1.55;;
47589;SDS011;33316;52.298;9.056;2024-01-15T03:17:27;3.58;;;1.20;;
47589;SDS011;33316;52.298;9.056;2024-01-15T03:19:55;3.95;;;1.00;;
47589;SDS011;33316;52.298;9.056;2024-01-15T03:22:21;5.60;;;1.20;;
47589;SDS011;33316;52.298;9.056;2024-01-15T03:24:48;2.65;;;1.05;;
47589;SDS011;33316;52.298;9.056;2024-01-15T03:27:15;4.22;;;1.10;;
47589;SDS011;33316;52.298;9.056;2024-01-15T03:29:42;5.05;;;1.02;;
47589;SDS011;33316;52.298;9.056;2024-01-15T03:32:10;4.15;;;1.10;;
47589;SDS011;33316;52.298;9.056;2024-01-15T03:34:37;1.85;;;0.90;;
47589;SDS011;33316;52.298;9.056;2024-01-15T03:37:04;3.25;;;1.10;;
47589;SDS011;33316;52.298;9.056;2024-01-15T03:39:31;5.43;;;1.33;;
47589;SDS011;33316;52.298;9.056;2024-01-15T03:41:58;3.40;;;0.93;;
47589;SDS011;33316;52.298;9.056;2024-01-15T03:44:25;4.75;;;1.30;;
47589;SDS011;33316;52.298;9.056;2024-01-15T03:46:52;5.13;;;1.40;;
47589;SDS011;33316;52.298;9.056;2024-01-15T03:49:20;4.68;;;1.27;;
47589;SDS011;33316;52.298;9.056;2024-01-15T03:51:47;4.70;;;1.15;;
47589;SDS011;33316;52.298;9.056;2024-01-15T03:54:14;5.20;;;1.25;;
47589;SDS011;33316;52.298;9.056;2024-01-15T03:56:40;5.63;;;1.30;;
47589;SDS011;33316;52.298;9.056;2024-01-15T03:59:07;2.15;;;0.80;;
47589;SDS011;33316;52.298;9.056;2024-01-15T04:01:34;0.88;;;0.63;;
47589;SDS011;33316;52.298;9.056;2024-01-15T04:04:01;4.80;;;0.98;;
47589;SDS011;33316;52.298;9.056;2024-01-15T04:06:29;9.82;;;1.00;;
47589;SDS011;33316;52.298;9.056;2024-01-15T04:08:56;3.75;;;0.95;;
47589;SDS011;33316;52.298;9.056;2024-01-15T04:11:23;5.15;;;1.00;;
47589;SDS011;33316;52.298;9.056;2024-01-15T04:13:50;2.60;;;0.90;;
47589;SDS011;33316;52.298;9.056;2024-01-15T04:16:16;3.95;;;1.05;;
47589;SDS011;33316;52.298;9.056;2024-01-15T04:18:44;6.13;;;1.00;;
47589;SDS011;33316;52.298;9.056;2024-01-15T04:21:10;2.92;;;0.90;;
47589;SDS011;33316;52.298;9.056;2024-01-15T04:23:40;3.67;;;0.90;;
47589;SDS011;33316;52.298;9.056;2024-01-15T04:26:06;2.40;;;0.73;;
47589;SDS011;33316;52.298;9.056;2024-01-15T04:28:33;2.65;;;1.00;;
47589;SDS011;33316;52.298;9.056;2024-01-15T04:31:00;4.88;;;1.20;;
47589;SDS011;33316;52.298;9.056;2024-01-15T04:33:27;3.08;;;0.90;;
47589;SDS011;33316;52.298;9.056;2024-01-15T04:35:54;2.40;;;0.80;;
47589;SDS011;33316;52.298;9.056;2024-01-15T04:38:20;4.05;;;1.00;;
47589;SDS011;33316;52.298;9.056;2024-01-15T04:40:50;3.85;;;1.00;;
47589;SDS011;33316;52.298;9.056;2024-01-15T04:43:17;5.07;;;0.93;;
47589;SDS011;33316;52.298;9.056;2024-01-15T04:45:44;3.63;;;0.80;;
47589;SDS011;33316;52.298;9.056;2024-01-15T04:48:11;2.60;;;0.70;;
47589;SDS011;33316;52.298;9.056;2024-01-15T04:50:37;5.30;;;0.90;;
47589;SDS011;33316;52.298;9.056;2024-01-15T04:53:04;7.07;;;1.35;;
47589;SDS011;33316;52.298;9.056;2024-01-15T04:55:31;2.42;;;0.95;;
47589;SDS011;33316;52.298;9.056;2024-01-15T04:57:59;3.53;;;0.70;;
47589;SDS011;33316;52.298;9.056;2024-01-15T05:00:26;4.10;;;0.98;;
47589;SDS011;33316;52.298;9.056;2024-01-15T05:02:53;1.73;;;0.88;;
47589;SDS011;33316;52.298;9.056;2024-01-15T05:05:21;2.15;;;0.80;;
47589;SDS011;33316;52.298;9.056;2024-01-15T05:07:48;4.35;;;0.82;;
47589;SDS011;33316;52.298;9.056;2024-01-15T05:10:14;3.60;;;1.08;;
47589;SDS011;33316;52.298;9.056;2024-01-15T05:12:41;2.13;;;0.85;;
47589;SDS011;33316;52.298;9.056;2024-01-15T05:15:09;5.63;;;1.10;;
47589;SDS011;33316;52.298;9.056;2024-01-15T05:17:36;2.03;;;0.80;;
47589;SDS011;33316;52.298;9.056;2024-01-15T05:20:03;2.70;;;0.90;;
47589;SDS011;33316;52.298;9.056;2024-01-15T05:22:31;4.13;;;1.05;;
47589;SDS011;33316;52.298;9.056;2024-01-15T05:24:58;1.95;;;0.65;;
47589;SDS011;33316;52.298;9.056;2024-01-15T05:27:24;2.42;;;0.77;;
47589;SDS011;33316;52.298;9.056;2024-01-15T05:29:52;3.50;;;0.75;;
47589;SDS011;33316;52.298;9.056;2024-01-15T05:32:20;6.18;;;1.00;;
47589;SDS011;33316;52.298;9.056;2024-01-15T05:34:47;3.13;;;1.08;;
47589;SDS011;33316;52.298;9.056;2024-01-15T05:37:14;3.05;;;0.80;;
47589;SDS011;33316;52.298;9.056;2024-01-15T05:39:42;3.22;;;0.95;;
47589;SDS011;33316;52.298;9.056;2024-01-15T05:42:08;2.88;;;1.27;;
47589;SDS011;33316;52.298;9.056;2024-01-15T05:44:35;5.35;;;1.00;;
47589;SDS011;33316;52.298;9.056;2024-01-15T05:47:02;2.15;;;0.80;;
47589;SDS011;33316;52.298;9.056;2024-01-15T05:49:31;1.88;;;0.60;;
47589;SDS011;33316;52.298;9.056;2024-01-15T05:51:58;3.35;;;1.45;;
47589;SDS011;33316;52.298;9.056;2024-01-15T05:54:25;2.65;;;0.70;;
47589;SDS011;33316;52.298;9.056;2024-01-15T05:56:52;3.85;;;1.10;;
47589;SDS011;33316;52.298;9.056;2024-01-15T05:59:18;3.90;;;0.85;;
47589;SDS011;33316;52.298;9.056;2024-01-15T06:01:45;3.58;;;0.93;;
47589;SDS011;33316;52.298;9.056;2024-01-15T06:04:12;3.72;;;1.02;;
47589;SDS011;33316;52.298;9.056;2024-01-15T06:06:40;4.35;;;1.00;;
47589;SDS011;33316;52.298;9.056;2024-01-15T06:09:07;4.57;;;1.02;;
47589;SDS011;33316;52.298;9.056;2024-01-15T06:11:34;2.40;;;1.02;;
47589;SDS011;33316;52.298;9.056;2024-01-15T06:14:01;2.13;;;0.90;;
47589;SDS011;33316;52.298;9.056;2024-01-15T06:16:28;3.03;;;1.20;;
47589;SDS011;33316;52.298;9.056;2024-01-15T06:18:55;1.25;;;0.70;;
47589;SDS011;33316;52.298;9.056;2024-01-15T06:21:21;2.45;;;1.17;;
47589;SDS011;33316;52.298;9.056;2024-01-15T06:23:50;2.95;;;1.50;;
47589;SDS011;33316;52.298;9.056;2024-01-15T06:26:16;3.53;;;1.48;;
47589;SDS011;33316;52.298;9.056;2024-01-15T06:28:43;3.95;;;1.50;;
47589;SDS011;33316;52.298;9.056;2024-01-15T06:31:10;3.45;;;1.40;;
47589;SDS011;33316;52.298;9.056;2024-01-15T06:33:37;3.47;;;1.40;;
47589;SDS011;33316;52.298;9.056;2024-01-15T06:36:04;4.22;;;1.20;;
47589;SDS011;33316;52.298;9.056;2024-01-15T06:38:32;2.78;;;1.35;;
47589;SDS011;33316;52.298;9.056;2024-01-15T06:41:01;1.83;;;0.90;;
47589;SDS011;33316;52.298;9.056;2024-01-15T06:43:28;1.77;;;1.00;;
47589;SDS011;33316;52.298;9.056;2024-01-15T06:45:55;4.88;;;1.20;;
47589;SDS011;33316;52.298;9.056;2024-01-15T06:48:22;2.65;;;1.00;;
47589;SDS011;33316;52.298;9.056;2024-01-15T06:50:49;4.38;;;1.15;;
47589;SDS011;33316;52.298;9.056;2024-01-15T06:53:16;3.15;;;1.17;;
47589;SDS011;33316;52.298;9.056;2024-01-15T06:55:42;1.95;;;1.00;;
47589;SDS011;33316;52.298;9.056;2024-01-15T06:58:11;4.60;;;1.00;;
47589;SDS011;33316;52.298;9.056;2024-01-15T07:00:37;2.60;;;1.10;;
47589;SDS011;33316;52.298;9.056;2024-01-15T07:03:05;5.05;;;1.20;;
47589;SDS011;33316;52.298;9.056;2024-01-15T07:05:32;3.03;;;1.08;;
47589;SDS011;33316;52.298;9.056;2024-01-15T07:07:59;4.57;;;1.30;;
47589;SDS011;33316;52.298;9.056;2024-01-15T07:10:26;1.95;;;1.10;;
47589;SDS011;33316;52.298;9.056;2024-01-15T07:12:53;4.53;;;1.00;;
47589;SDS011;33316;52.298;9.056;2024-01-15T07:15:21;2.65;;;1.10;;
47589;SDS011;33316;52.298;9.056;2024-01-15T07:17:48;3.67;;;1.35;;
47589;SDS011;33316;52.298;9.056;2024-01-15T07:20:15;2.85;;;1.30;;
47589;SDS011;33316;52.298;9.056;2024-01-15T07:22:44;2.55;;;1.30;;
47589;SDS011;33316;52.298;9.056;2024-01-15T07:25:11;4.57;;;1.27;;
47589;SDS011;33316;52.298;9.056;2024-01-15T07:27:38;5.90;;;1.35;;
47589;SDS011;33316;52.298;9.056;2024-01-15T07:30:06;2.90;;;0.95;;
47589;SDS011;33316;52.298;9.056;2024-01-15T07:32:35;3.63;;;1.13;;
47589;SDS011;33316;52.298;9.056;2024-01-15T07:35:02;2.72;;;1.10;;
47589;SDS011;33316;52.298;9.056;2024-01-15T07:37:30;3.38;;;1.10;;
47589;SDS011;33316;52.298;9.056;2024-01-15T07:39:58;2.80;;;1.30;;
47589;SDS011;33316;52.298;9.056;2024-01-15T07:42:25;2.35;;;0.90;;
47589;SDS011;33316;52.298;9.056;2024-01-15T07:44:52;1.70;;;0.90;;
47589;SDS011;33316;52.298;9.056;2024-01-15T07:47:19;2.88;;;1.00;;
47589;SDS011;33316;52.298;9.056;2024-01-15T07:49:48;1.77;;;1.00;;
47589;SDS011;33316;52.298;9.056;2024-01-15T07:52:14;2.20;;;1.17;;
47589;SDS011;33316;52.298;9.056;2024-01-15T07:54:41;2.97;;;0.95;;
47589;SDS011;33316;52.298;9.056;2024-01-15T07:57:08;3.53;;;1.17;;
47589;SDS011;33316;52.298;9.056;2024-01-15T07:59:35;3.03;;;1.20;;
47589;SDS011;33316;52.298;9.056;2024-01-15T08:02:02;2.58;;;1.10;;
47589;SDS011;33316;52.298;9.056;2024-01-15T08:04:29;5.20;;;1.10;;
47589;SDS011;33316;52.298;9.056;2024-01-15T08:06:58;2.63;;;1.20;;
47589;SDS011;33316;52.298;9.056;2024-01-15T08:09:24;5.00;;;1.00;;
47589;SDS011;33316;52.298;9.056;2024-01-15T08:11:51;4.35;;;0.90;;
47589;SDS011;33316;52.298;9.056;2024-01-15T08:14:21;1.15;;;0.85;;
47589;SDS011;33316;52.298;9.056;2024-01-15T08:16:48;4.18;;;1.13;;
47589;SDS011;33316;52.298;9.056;2024-01-15T08:19:16;1.52;;;0.73;;
47589;SDS011;33316;52.298;9.056;2024-01-15T08:21:42;2.83;;;0.95;;
47589;SDS011;33316;52.298;9.056;2024-01-15T08:24:11;3.63;;;1.00;;
47589;SDS011;33316;52.298;9.056;2024-01-15T08:26:38;2.95;;;0.88;;
47589;SDS011;33316;52.298;9.056;2024-01-15T08:29:04;2.55;;;0.90;;
47589;SDS011;33316;52.298;9.056;2024-01-15T08:31:36;2.38;;;1.30;;
47589;SDS011;33316;52.298;9.056;2024-01-15T08:34:03;3.17;;;1.20;;
47589;SDS011;33316;52.298;9.056;2024-01-15T08:36:33;3.33;;;1.58;;
47589;SDS011;33316;52.298;9.056;2024-01-15T08:39:01;2.25;;;1.10;;
47589;SDS011;33316;52.298;9.056;2024-01-15T08:41:31;4.32;;;1.50;;
47589;SDS011;33316;52.298;9.056;2024-01-15T08:43:58;1.98;;;1.30;;
47589;SDS011;33316;52.298;9.056;2024-01-15T08:46:25;2.75;;;1.67;;
47589;SDS011;33316;52.298;9.056;2024-01-15T08:48:52;4.50;;;1.45;;
47589;SDS011;33316;52.298;9.056;2024-01-15T08:51:19;4.78;;;1.20;;
47589;SDS011;33316;52.298;9.056;2024-01-15T08:53:46;3.53;;;1.30;;
47589;SDS011;33316;52.298;9.056;2024-01-15T08:56:13;6.13;;;1.52;;
47589;SDS011;33316;52.298;9.056;2024-01-15T08:58:41;6.28;;;1.98;;
47589;SDS011;33316;52.298;9.056;2024-01-15T09:01:13;3.53;;;1.60;;
47589;SDS011;33316;52.298;9.056;2024-01-15T09:03:40;3.08;;;1.50;;
47589;SDS011;33316;52.298;9.056;2024-01-15T09:06:08;4.55;;;1.52;;
47589;SDS011;33316;52.298;9.056;2024-01-15T09:08:35;2.15;;;1.38;;
47589;SDS011;33316;52.298;9.056;2024-01-15T09:11:02;3.95;;;1.50;;
47589;SDS011;33316;52.298;9.056;2024-01-15T09:13:29;2.25;;;1.30;;
47589;SDS011;33316;52.298;9.056;2024-01-15T09:15:59;2.35;;;1.25;;
47589;SDS011;33316;52.298;9.056;2024-01-15T09:18:28;2.90;;;1.80;;
47589;SDS011;33316;52.298;9.056;2024-01-15T09:20:55;3.67;;;1.50;;
47589;SDS011;33316;52.298;9.056;2024-01-15T09:23:25;2.45;;;1.15;;
47589;SDS011;33316;52.298;9.056;2024-01-15T09:25:55;4.00;;;1.30;;
47589;SDS011;33316;52.298;9.056;2024-01-15T09:28:22;3.90;;;1.10;;
47589;SDS011;33316;52.298;9.056;2024-01-15T09:30:49;3.42;;;1.20;;
47589;SDS011;33316;52.298;9.056;2024-01-15T09:33:19;2.38;;;1.17;;
47589;SDS011;33316;52.298;9.056;2024-01-15T09:35:46;3.40;;;1.27;;
47589;SDS011;33316;52.298;9.056;2024-01-15T09:38:13;3.70;;;1.40;;
47589;SDS011;33316;52.298;9.056;2024-01-15T09:40:43;1.33;;;1.05;;
47589;SDS011;33316;52.298;9.056;2024-01-15T09:43:12;2.83;;;1.38;;
47589;SDS011;33316;52.298;9.056;2024-01-15T09:45:40;2.55;;;1.15;;
47589;SDS011;33316;52.298;9.056;2024-01-15T09:48:08;2.60;;;1.20;;
47589;SDS011;33316;52.298;9.056;2024-01-15T09:50:36;2.72;;;1.20;;
47589;SDS011;33316;52.298;9.056;2024-01-15T09:53:03;2.35;;;1.10;;
47589;SDS011;33316;52.298;9.056;2024-01-15T09:55:31;2.67;;;1.10;;
47589;SDS011;33316;52.298;9.056;2024-01-15T09:57:59;2.08;;;0.85;;
47589;SDS011;33316;52.298;9.056;2024-01-15T10:00:28;1.85;;;0.80;;
47589;SDS011;33316;52.298;9.056;2024-01-15T10:02:56;1.17;;;0.80;;
47589;SDS011;33316;52.298;9.056;2024-01-15T10:05:23;1.67;;;0.75;;
47589;SDS011;33316;52.298;9.056;2024-01-15T10:07:51;1.48;;;0.68;;
47589;SDS011;33316;52.298;9.056;2024-01-15T10:10:20;2.13;;;0.90;;
47589;SDS011;33316;52.298;9.056;2024-01-15T10:12:47;1.77;;;0.85;;
47589;SDS011;33316;52.298;9.056;2024-01-15T10:15:15;2.35;;;1.10;;
47589;SDS011;33316;52.298;9.056;2024-01-15T10:17:42;1.63;;;0.80;;
47589;SDS011;33316;52.298;9.056;2024-01-15T10:20:10;2.42;;;1.30;;
47589;SDS011;33316;52.298;9.056;2024-01-15T10:22:39;3.88;;;1.40;;
47589;SDS011;33316;52.298;9.056;2024-01-15T10:25:10;1.50;;;0.77;;
47589;SDS011;33316;52.298;9.056;2024-01-15T10:27:38;3.15;;;0.98;;
47589;SDS011;33316;52.298;9.056;2024-01-15T10:30:05;1.08;;;0.90;;
47589;SDS011;33316;52.298;9.056;2024-01-15T10:32:33;1.80;;;0.93;;
47589;SDS011;33316;52.298;9.056;2024-01-15T10:35:00;2.40;;;0.90;;
47589;SDS011;33316;52.298;9.056;2024-01-15T10:37:27;2.28;;;0.90;;
47589;SDS011;33316;52.298;9.056;2024-01-15T10:39:55;3.33;;;1.00;;
47589;SDS011;33316;52.298;9.056;2024-01-15T10:42:23;2.00;;;0.90;;
47589;SDS011;33316;52.298;9.056;2024-01-15T10:44:56;1.77;;;0.80;;
47589;SDS011;33316;52.298;9.056;2024-01-15T10:47:23;2.80;;;1.02;;
47589;SDS011;33316;52.298;9.056;2024-01-15T10:49:50;1.98;;;0.93;;
47589;SDS011;33316;52.298;9.056;2024-01-15T10:52:18;1.30;;;0.88;;
47589;SDS011;33316;52.298;9.056;2024-01-15T10:54:45;2.45;;;1.00;;
47589;SDS011;33316;52.298;9.056;2024-01-15T10:57:12;2.17;;;1.08;;
47589;SDS011;33316;52.298;9.056;2024-01-15T10:59:42;1.63;;;0.85;;
47589;SDS011;33316;52.298;9.056;2024-01-15T11:02:09;4.70;;;1.48;;
47589;SDS011;33316;52.298;9.056;2024-01-15T11:04:36;3.65;;;1.40;;
47589;SDS011;33316;52.298;9.056;2024-01-15T11:07:03;3.08;;;1.30;;
47589;SDS011;33316;52.298;9.056;2024-01-15T11:09:32;4.55;;;1.10;;
47589;SDS011;33316;52.298;9.056;2024-01-15T11:12:06;3.45;;;1.13;;
47589;SDS011;33316;52.298;9.056;2024-01-15T11:14:37;3.60;;;1.23;;
47589;SDS011;33316;52.298;9.056;2024-01-15T11:17:07;1.77;;;0.90;;
47589;SDS011;33316;52.298;9.056;2024-01-15T11:19:35;3.20;;;1.10;;
47589;SDS011;33316;52.298;9.056;2024-01-15T11:22:05;3.33;;;1.17;;
47589;SDS011;33316;52.298;9.056;2024-01-15T11:24:33;4.53;;;1.10;;
47589;SDS011;33316;52.298;9.056;2024-01-15T11:27:04;3.55;;;1.17;;
47589;SDS011;33316;52.298;9.056;2024-01-15T11:29:32;4.03;;;1.40;;
47589;SDS011;33316;52.298;9.056;2024-01-15T11:32:02;3.13;;;1.20;;
47589;SDS011;33316;52.298;9.056;2024-01-15T11:34:57;5.45;;;1.45;;
47589;SDS011;33316;52.298;9.056;2024-01-15T11:37:27;3.88;;;1.10;;
47589;SDS011;33316;52.298;9.056;2024-01-15T11:39:56;3.45;;;1.27;;
47589;SDS011;33316;52.298;9.056;2024-01-15T11:42:28;3.80;;;1.30;;
47589;SDS011;33316;52.298;9.056;2024-01-15T11:44:56;2.85;;;1.20;;
47589;SDS011;33316;52.298;9.056;2024-01-15T11:47:31;1.85;;;1.10;;
47589;SDS011;33316;52.298;9.056;2024-01-15T11:50:23;4.65;;;1.58;;
47589;SDS011;33316;52.298;9.056;2024-01-15T11:52:55;4.35;;;1.48;;
47589;SDS011;33316;52.298;9.056;2024-01-15T11:55:26;3.38;;;1.40;;
47589;SDS011;33316;52.298;9.056;2024-01-15T11:57:55;4.13;;;1.30;;
47589;SDS011;33316;52.298;9.056;2024-01-15T12:00:24;2.95;;;1.10;;
47589;SDS011;33316;52.298;9.056;2024-01-15T12:02:51;4.50;;;1.08;;
47589;SDS011;33316;52.298;9.056;2024-01-15T12:05:19;2.50;;;0.93;;
47589;SDS011;33316;52.298;9.056;2024-01-15T12:07:48;4.85;;;1.20;;
47589;SDS011;33316;52.298;9.056;2024-01-15T12:10:16;3.00;;;1.10;;
47589;SDS011;33316;52.298;9.056;2024-01-15T12:12:47;1.35;;;0.88;;
47589;SDS011;33316;52.298;9.056;2024-01-15T12:15:20;3.92;;;1.27;;
47589;SDS011;33316;52.298;9.056;2024-01-15T12:17:48;4.35;;;1.52;;
47589;SDS011;33316;52.298;9.056;2024-01-15T12:20:15;2.28;;;1.00;;
47589;SDS011;33316;52.298;9.056;2024-01-15T12:22:41;4.40;;;1.02;;
47589;SDS011;33316;52.298;9.056;2024-01-15T12:25:10;3.97;;;1.30;;
47589;SDS011;33316;52.298;9.056;2024-01-15T12:27:37;2.75;;;1.02;;
47589;SDS011;33316;52.298;9.056;2024-01-15T12:30:05;1.35;;;0.80;;
47589;SDS011;33316;52.298;9.056;2024-01-15T12:32:32;2.90;;;0.80;;
47589;SDS011;33316;52.298;9.056;2024-01-15T12:35:00;2.13;;;0.85;;
47589;SDS011;33316;52.298;9.056;2024-01-15T12:37:27;4.78;;;1.30;;
47589;SDS011;33316;52.298;9.056;2024-01-15T12:39:55;6.65;;;1.17;;
47589;SDS011;33316;52.298;9.056;2024-01-15T12:42:25;7.00;;;1.15;;
47589;SDS011;33316;52.298;9.056;2024-01-15T12:44:54;4.53;;;1.02;;
47589;SDS011;33316;52.298;9.056;2024-01-15T12:47:22;3.60;;;1.52;;
47589;SDS011;33316;52.298;9.056;2024-01-15T12:49:51;2.80;;;1.13;;
47589;SDS011;33316;52.298;9.056;2024-01-15T12:52:19;4.28;;;1.20;;
47589;SDS011;33316;52.298;9.056;2024-01-15T12:54:46;3.53;;;1.30;;
47589;SDS011;33316;52.298;9.056;2024-01-15T12:57:13;5.47;;;1.90;;
47589;SDS011;33316;52.298;9.056;2024-01-15T12:59:42;4.95;;;1.85;;
47589;SDS011;33316;52.298;9.056;2024-01-15T13:02:09;5.38;;;2.28;;
47589;SDS011;33316;52.298;9.056;2024-01-15T13:04:36;4.35;;;1.80;;
47589;SDS011;33316;52.298;9.056;2024-01-15T13:07:04;3.65;;;1.67;;
47589;SDS011;33316;52.298;9.056;2024-01-15T13:09:31;4.45;;;1.17;;
47589;SDS011;33316;52.298;9.056;2024-01-15T13:11:57;3.83;;;1.10;;
47589;SDS011;33316;52.298;9.056;2024-01-15T13:14:24;3.38;;;0.98;;
47589;SDS011;33316;52.298;9.056;2024-01-15T13:16:53;3.50;;;1.17;;
47589;SDS011;33316;52.298;9.056;2024-01-15T13:19:21;1.77;;;0.85;;
47589;SDS011;33316;52.298;9.056;2024-01-15T13:21:48;1.42;;;0.80;;
47589;SDS011;33316;52.298;9.056;2024-01-15T13:24:16;1.88;;;0.80;;
47589;SDS011;33316;52.298;9.056;2024-01-15T13:26:43;2.10;;;0.85;;
47589;SDS011;33316;52.298;9.056;2024-01-15T13:29:10;1.52;;;1.00;;
47589;SDS011;33316;52.298;9.056;2024-01-15T13:31:37;3.38;;;1.00;;
47589;SDS011;33316;52.298;9.056;2024-01-15T13:34:06;1.67;;;0.88;;
47589;SDS011;33316;52.298;9.056;2024-01-15T13:36:34;1.95;;;0.90;;
47589;SDS011;33316;52.298;9.056;2024-01-15T13:39:04;2.85;;;1.00;;
47589;SDS011;33316;52.298;9.056;2024-01-15T13:41:34;4.20;;;0.90;;
47589;SDS011;33316;52.298;9.056;2024-01-15T13:44:01;1.17;;;0.80;;
47589;SDS011;33316;52.298;9.056;2024-01-15T13:46:28;1.75;;;0.80;;
47589;SDS011;33316;52.298;9.056;2024-01-15T13:48:55;4.13;;;1.20;;
47589;SDS011;33316;52.298;9.056;2024-01-15T13:51:23;2.08;;;1.02;;
47589;SDS011;33316;52.298;9.056;2024-01-15T13:53:50;2.20;;;1.15;;
47589;SDS011;33316;52.298;9.056;2024-01-15T13:56:18;2.28;;;1.00;;
47589;SDS011;33316;52.298;9.056;2024-01-15T13:58:45;2.95;;;0.80;;
47589;SDS011;33316;52.298;9.056;2024-01-15T14:01:13;5.93;;;1.10;;
47589;SDS011;33316;52.298;9.056;2024-01-15T14:03:39;3.33;;;1.23;;
47589;SDS011;33316;52.298;9.056;2024-01-15T14:06:06;4.63;;;1.10;;
47589;SDS011;33316;52.298;9.056;2024-01-15T14:08:37;2.85;;;1.23;;
47589;SDS011;33316;52.298;9.056;2024-01-15T14:11:04;2.30;;;1.23;;
47589;SDS011;33316;52.298;9.056;2024-01-15T14:13:32;2.92;;;1.20;;
47589;SDS011;33316;52.298;9.056;2024-01-15T14:15:59;2.75;;;1.20;;
47589;SDS011;33316;52.298;9.056;2024-01-15T14:18:26;1.52;;;0.93;;
47589;SDS011;33316;52.298;9.056;2024-01-15T14:20:53;1.65;;;1.00;;
47589;SDS011;33316;52.298;9.056;2024-01-15T14:23:20;5.10;;;0.93;;
47589;SDS011;33316;52.298;9.056;2024-01-15T14:25:48;3.10;;;0.98;;
47589;SDS011;33316;52.298;9.056;2024-01-15T14:28:15;2.08;;;1.20;;
47589;SDS011;33316;52.298;9.056;2024-01-15T14:30:42;2.50;;;1.20;;
47589;SDS011;33316;52.298;9.056;2024-01-15T14:33:09;1.77;;;0.82;;
47589;SDS011;33316;52.298;9.056;2024-01-15T14:35:36;1.00;;;0.80;;
47589;SDS011;33316;52.298;9.056;2024-01-15T14:38:03;1.88;;;1.00;;
47589;SDS011;33316;52.298;9.056;2024-01-15T14:40:30;4.20;;;1.15;;
47589;SDS011;33316;52.298;9.056;2024-01-15T14:42:59;3.35;;;1.35;;
47589;SDS011;33316;52.298;9.056;2024-01-15T14:45:26;4.00;;;2.28;;
47589;SDS011;33316;52.298;9.056;2024-01-15T14:47:53;4.47;;;1.20;;
47589;SDS011;33316;52.298;9.056;2024-01-15T14:50:22;2.05;;;0.90;;